KOCH/OCH METAR and TAF weather

Enter ICAO airport designator
Station Type Date Time Source
KOCH METAR 2021/03/07 22:56 UTC NOAA

KOCH 072256Z AUTO 14005KT 10SM CLR 19/01 A3035 RMK AO2 SLP282 T01890006


Station Type Date Time Source
KOCH Decoded METAR 2021/03/07 22:56 UTC NOAA

Nacogdoches, A L Mangham Jr. Regional Airport, TX, United States (KOCH) 31-35N 094-43W
Mar 07, 2021 - 05:56 PM EST / 2021.03.07 2256 UTC
Wind: from the SE (140 degrees) at 6 MPH (5 KT):0
Visibility: 10 mile(s):0
Sky conditions: clear
Temperature: 66.0 F (18.9 C)
Dew Point: 33.1 F (0.6 C)
Relative Humidity: 29%
Pressure (altimeter): 30.35 in. Hg (1027 hPa)
ob: KOCH 072256Z AUTO 14005KT 10SM CLR 19/01 A3035 RMK AO2 SLP282 T01890006
cycle: 23

Station Type Date Time Source
KOCH TAF UTC NOAA

Error!

Example: see airport list